Time;durP1;ratioP1;P1;durP2;ratioP2;P2;SDS_P1;SDS_P2;PMS_P1;PMS_P2;Temp;Humidity;BMP_temperature;BMP_pressure;BME280_temperature;BME280_humidity;BME280_pressure;Samples;Min_cycle;Max_cycle;Signal;HPM_P1;HPM_P2
2021/11/09 00:00:48;;;;;;;11.07;4.97;;;7.80;97.30;;;;;;5038461;28;20440;-83
2021/11/09 00:03:15;;;;;;;9.90;4.97;;;7.90;97.30;;;;;;5036607;28;20180;-83
2021/11/09 00:06:00;;;;;;;14.70;4.60;;;7.90;97.30;;;;;;5035833;28;20442;-83
2021/11/09 00:08:31;;;;;;;15.03;5.00;;;7.90;97.30;;;;;;5035698;28;20466;-83
2021/11/09 00:10:57;;;;;;;12.50;4.60;;;7.90;97.30;;;;;;5036460;28;20857;-84
2021/11/09 00:13:23;;;;;;;13.90;5.57;;;7.90;97.30;;;;;;5036603;28;20415;-84
2021/11/09 00:15:49;;;;;;;11.07;5.20;;;7.90;97.30;;;;;;5035717;28;20330;-83
2021/11/09 00:18:15;;;;;;;20.80;5.90;;;7.80;97.30;;;;;;5035584;28;20183;-84
2021/11/09 00:20:42;;;;;;;17.97;4.63;;;7.80;97.30;;;;;;5037219;28;20971;-83
2021/11/09 00:23:09;;;;;;;11.47;5.10;;;7.80;97.30;;;;;;5035680;28;21012;-83
2021/11/09 00:25:36;;;;;;;15.10;6.47;;;7.80;97.30;;;;;;5035663;28;20466;-84
2021/11/09 00:28:03;;;;;;;18.83;6.30;;;7.80;97.30;;;;;;5019247;28;20801;-84
2021/11/09 00:30:30;;;;;;;11.43;5.40;;;7.80;97.30;;;;;;5035515;28;20419;-83
2021/11/09 00:32:56;;;;;;;12.03;5.60;;;7.80;97.30;;;;;;5035622;28;20514;-83
2021/11/09 00:35:25;;;;;;;16.00;5.40;;;7.80;97.30;;;;;;5035487;28;20439;-84
2021/11/09 00:37:52;;;;;;;14.90;5.00;;;7.80;97.30;;;;;;5035957;28;20420;-82
2021/11/09 00:40:20;;;;;;;23.90;6.77;;;7.80;97.30;;;;;;5035649;28;20872;-83
2021/11/09 00:42:46;;;;;;;16.73;6.53;;;7.80;97.30;;;;;;5038042;28;20415;-84
2021/11/09 00:45:13;;;;;;;15.07;5.57;;;7.80;97.30;;;;;;5036056;28;21010;-83
2021/11/09 00:47:40;;;;;;;12.10;5.20;;;7.80;97.30;;;;;;5036232;28;20443;-83
2021/11/09 00:50:07;;;;;;;10.10;4.87;;;7.80;97.30;;;;;;5036390;28;20411;-82
2021/11/09 00:52:33;;;;;;;16.10;5.67;;;7.80;97.30;;;;;;5035874;28;20458;-83
2021/11/09 00:55:00;;;;;;;22.90;5.40;;;7.80;97.30;;;;;;5034738;28;20473;-83
2021/11/09 00:57:26;;;;;;;9.87;4.90;;;7.80;97.30;;;;;;5035032;28;20415;-83
2021/11/09 00:59:52;;;;;;;17.20;6.20;;;7.70;97.30;;;;;;5034938;28;20947;-83
2021/11/09 01:02:17;;;;;;;9.43;5.20;;;7.70;97.30;;;;;;5034583;28;20184;-83
2021/11/09 01:04:44;;;;;;;13.80;5.37;;;7.70;97.30;;;;;;5036705;28;20192;-83
2021/11/09 01:07:09;;;;;;;20.13;5.93;;;7.70;97.30;;;;;;5035540;28;20428;-83
2021/11/09 01:09:35;;;;;;;14.13;6.23;;;7.70;97.30;;;;;;5035046;28;20936;-83
2021/11/09 01:12:01;;;;;;;17.10;6.27;;;7.70;97.30;;;;;;5034712;28;20215;-84
2021/11/09 01:14:27;;;;;;;14.77;4.73;;;7.70;97.30;;;;;;5034548;28;20181;-83
2021/11/09 01:16:53;;;;;;;13.13;5.77;;;7.70;97.30;;;;;;5034664;28;20177;-83
2021/11/09 01:19:19;;;;;;;18.40;6.00;;;7.70;97.30;;;;;;5034850;28;20414;-84
2021/11/09 01:21:45;;;;;;;14.47;5.37;;;7.70;97.30;;;;;;5034216;28;20450;-83
2021/11/09 01:24:11;;;;;;;15.70;5.00;;;7.70;97.30;;;;;;5035615;28;20179;-83
2021/11/09 01:26:39;;;;;;;13.83;5.90;;;7.70;97.30;;;;;;5034378;28;20211;-83
2021/11/09 01:29:06;;;;;;;15.90;6.17;;;7.70;97.30;;;;;;5034659;28;20790;-83
2021/11/09 01:31:33;;;;;;;21.53;5.43;;;7.70;97.30;;;;;;5034224;28;20457;-84
2021/11/09 01:33:59;;;;;;;19.67;6.70;;;7.70;97.30;;;;;;5035522;28;20881;-83
2021/11/09 01:36:25;;;;;;;9.63;5.20;;;7.70;97.30;;;;;;5034095;28;20432;-84
2021/11/09 01:38:51;;;;;;;17.40;5.90;;;7.70;97.30;;;;;;5034207;28;20412;-83
2021/11/09 01:41:18;;;;;;;17.67;5.43;;;7.70;97.30;;;;;;5035735;28;20494;-83
2021/11/09 01:43:44;;;;;;;8.70;4.63;;;7.70;97.30;;;;;;5034544;28;20180;-83
2021/11/09 01:46:12;;;;;;;15.70;6.20;;;7.70;97.30;;;;;;5034309;28;20439;-82
2021/11/09 01:48:40;;;;;;;12.67;5.20;;;7.70;97.30;;;;;;5034327;28;20951;-83
2021/11/09 01:51:08;;;;;;;17.63;7.60;;;7.60;97.30;;;;;;5034209;28;20577;-83
2021/11/09 01:53:36;;;;;;;13.03;4.83;;;7.60;97.30;;;;;;5034282;28;20419;-83
2021/11/09 01:56:06;;;;;;;14.20;5.60;;;7.60;97.30;;;;;;5034532;28;20454;-83
2021/11/09 01:58:32;;;;;;;11.00;4.90;;;7.60;97.30;;;;;;5034096;28;20404;-83
2021/11/09 02:01:02;;;;;;;13.90;4.80;;;7.50;97.30;;;;;;5033995;28;20450;-83
2021/11/09 02:03:28;;;;;;;13.63;4.90;;;7.50;97.30;;;;;;5033950;28;20443;-83
2021/11/09 02:05:54;;;;;;;14.50;5.33;;;7.50;97.30;;;;;;5035297;28;20438;-83
2021/11/09 02:08:21;;;;;;;14.53;5.50;;;7.50;97.30;;;;;;5034330;28;21016;-83
2021/11/09 02:10:48;;;;;;;9.97;4.63;;;7.50;97.30;;;;;;5033767;28;20513;-83
2021/11/09 02:13:15;;;;;;;12.27;4.47;;;7.50;97.30;;;;;;5033793;28;20441;-82
2021/11/09 02:15:41;;;;;;;12.30;4.83;;;7.50;97.30;;;;;;5032437;28;20861;-84
2021/11/09 02:18:10;;;;;;;9.10;4.60;;;7.50;97.30;;;;;;5033675;28;20414;-83
2021/11/09 02:20:36;;;;;;;15.30;5.20;;;7.50;97.30;;;;;;5033539;28;20427;-83
2021/11/09 02:23:03;;;;;;;14.67;4.87;;;7.50;97.30;;;;;;5033659;28;20415;-83
2021/11/09 02:25:31;;;;;;;14.90;5.90;;;7.50;97.30;;;;;;5033234;28;20443;-84
2021/11/09 02:27:58;;;;;;;10.17;4.33;;;7.50;97.30;;;;;;5033332;28;20423;-83
2021/11/09 02:30:26;;;;;;;13.87;5.60;;;7.50;97.30;;;;;;5033400;28;20791;-83
2021/11/09 02:32:54;;;;;;;10.20;4.97;;;7.50;97.30;;;;;;5033057;28;20459;-83
2021/11/09 02:35:22;;;;;;;14.87;5.40;;;7.50;97.30;;;;;;5033635;28;20435;-83
2021/11/09 02:37:49;;;;;;;17.00;4.37;;;7.50;97.30;;;;;;5033152;28;20545;-83
2021/11/09 02:40:15;;;;;;;14.50;5.20;;;7.50;97.30;;;;;;5033371;28;20418;-83
2021/11/09 02:42:46;;;;;;;19.47;5.00;;;7.60;97.30;;;;;;5033244;28;20415;-83
2021/11/09 02:45:21;;;;;;;16.00;5.83;;;7.60;97.30;;;;;;5033435;28;20522;-83
2021/11/09 02:47:55;;;;;;;10.40;4.80;;;7.60;97.30;;;;;;5033362;28;20465;-83
2021/11/09 02:50:24;;;;;;;12.83;4.87;;;7.60;97.30;;;;;;5032982;28;20423;-83
2021/11/09 02:53:02;;;;;;;8.70;4.57;;;7.60;97.30;;;;;;5033487;28;20415;-82
2021/11/09 02:55:51;;;;;;;15.17;5.53;;;7.60;97.30;;;;;;5032938;28;20437;-83
2021/11/09 03:01:09;;;;;;;14.50;5.20;;;7.60;97.30;;;;;;5034008;28;20947;-83
2021/11/09 03:03:41;;;;;;;10.77;5.23;;;7.60;97.30;;;;;;5033619;28;20766;-82
2021/11/09 03:09:08;;;;;;;19.30;5.10;;;7.60;97.30;;;;;;5034218;28;20499;-83
2021/11/09 03:11:36;;;;;;;17.03;5.27;;;7.60;97.30;;;;;;5032866;28;20891;-83
2021/11/09 03:14:02;;;;;;;7.97;4.47;;;7.60;97.30;;;;;;5033068;28;20415;-83
2021/11/09 03:16:34;;;;;;;14.00;4.83;;;7.60;97.30;;;;;;5032822;28;20463;-82
2021/11/09 03:46:40;;;;;;;18.00;5.10;;;7.50;97.30;;;;;;5037939;28;20394;-83
2021/11/09 03:49:08;;;;;;;11.70;6.00;;;7.60;97.30;;;;;;5037125;28;21023;-82
2021/11/09 03:51:34;;;;;;;9.37;4.77;;;7.50;97.30;;;;;;5035911;28;20458;-83
2021/11/09 03:54:03;;;;;;;12.73;4.83;;;7.50;97.30;;;;;;5036173;28;20429;-83
2021/11/09 03:56:43;;;;;;;13.90;4.77;;;7.60;97.30;;;;;;5035999;28;21031;-83
2021/11/09 03:59:17;;;;;;;15.27;5.30;;;7.60;97.30;;;;;;5035899;28;20446;-83
2021/11/09 04:02:10;;;;;;;14.97;6.53;;;7.60;97.30;;;;;;5035958;28;20430;-82
2021/11/09 04:04:35;;;;;;;14.53;4.90;;;7.50;97.30;;;;;;5036913;28;20468;-83
2021/11/09 04:07:14;;;;;;;26.43;5.50;;;7.60;97.30;;;;;;5036128;28;20439;-83
2021/11/09 04:10:32;;;;;;;10.87;4.63;;;7.60;97.30;;;;;;5036370;28;20450;-84
2021/11/09 04:20:39;;;;;;;16.47;4.93;;;7.60;97.30;;;;;;5037635;28;20407;-83
2021/11/09 04:23:31;;;;;;;12.40;5.70;;;7.60;97.30;;;;;;5036301;28;20168;-83
2021/11/09 04:40:28;;;;;;;15.50;5.00;;;7.60;97.30;;;;;;5037859;28;20421;-83
2021/11/09 04:50:48;;;;;;;19.20;5.30;;;7.50;97.30;;;;;;5038286;28;20401;-82
2021/11/09 04:53:24;;;;;;;18.90;4.93;;;7.50;97.30;;;;;;5037867;28;20431;-82
2021/11/09 05:09:42;;;;;;;10.70;4.33;;;7.50;97.30;;;;;;5038414;28;20399;-82
2021/11/09 05:12:08;;;;;;;19.33;6.57;;;7.50;97.30;;;;;;5036962;28;20554;-82
2021/11/09 05:14:34;;;;;;;21.37;6.17;;;7.50;97.30;;;;;;5036578;28;21092;-83
2021/11/09 05:17:01;;;;;;;13.07;5.17;;;7.50;97.30;;;;;;5036991;28;20415;-83
2021/11/09 05:19:28;;;;;;;13.50;5.30;;;7.50;97.30;;;;;;5037058;28;20507;-82
2021/11/09 05:21:55;;;;;;;11.50;4.93;;;7.50;97.30;;;;;;5037658;28;20473;-83
2021/11/09 05:24:21;;;;;;;14.30;5.40;;;7.50;97.30;;;;;;5035673;28;20423;-83
2021/11/09 05:26:47;;;;;;;15.23;5.40;;;7.50;97.30;;;;;;5035928;28;20407;-83
2021/11/09 05:29:14;;;;;;;20.87;4.83;;;7.50;97.30;;;;;;5035064;28;20924;-83
2021/11/09 05:31:41;;;;;;;18.97;5.63;;;7.50;97.30;;;;;;5034900;28;20458;-83
2021/11/09 05:34:08;;;;;;;12.33;5.90;;;7.50;97.30;;;;;;5036409;28;20423;-83
2021/11/09 05:36:39;;;;;;;10.40;5.80;;;7.50;97.30;;;;;;5035685;28;20474;-82
2021/11/09 05:39:16;;;;;;;9.90;4.40;;;7.50;97.30;;;;;;5034931;28;20407;-83
2021/11/09 05:41:43;;;;;;;11.43;5.27;;;7.50;97.30;;;;;;5036225;28;20909;-82
2021/11/09 05:44:09;;;;;;;12.73;5.00;;;7.50;97.30;;;;;;5036014;28;20415;-82
2021/11/09 05:46:36;;;;;;;19.97;6.60;;;7.50;97.30;;;;;;5036506;28;20438;-81
2021/11/09 05:49:03;;;;;;;14.93;5.00;;;7.50;97.30;;;;;;5036343;28;20408;-81
2021/11/09 05:51:29;;;;;;;19.90;5.70;;;7.50;97.30;;;;;;5035339;28;20466;-81
2021/11/09 05:53:55;;;;;;;16.43;5.70;;;7.50;97.30;;;;;;5036392;28;20415;-81
2021/11/09 05:56:21;;;;;;;17.00;6.30;;;7.60;97.30;;;;;;5037616;28;20481;-81
2021/11/09 05:58:46;;;;;;;12.10;5.37;;;7.50;97.30;;;;;;5036380;28;20651;-80
2021/11/09 06:01:12;;;;;;;14.33;6.03;;;7.50;97.30;;;;;;5036959;28;20184;-81
2021/11/09 06:03:38;;;;;;;15.53;5.47;;;7.50;97.30;;;;;;5037002;28;20710;-80
2021/11/09 06:06:03;;;;;;;12.80;5.03;;;7.50;97.30;;;;;;5037726;28;20196;-80
2021/11/09 06:08:29;;;;;;;12.30;5.63;;;7.50;97.30;;;;;;5037324;28;20196;-81
2021/11/09 06:10:54;;;;;;;12.63;5.70;;;7.60;97.30;;;;;;5037664;28;20299;-79
2021/11/09 06:13:20;;;;;;;13.97;5.00;;;7.50;97.30;;;;;;5038361;28;20172;-81
2021/11/09 06:15:46;;;;;;;12.93;4.73;;;7.60;97.30;;;;;;5037895;28;20196;-81
2021/11/09 06:18:11;;;;;;;11.13;4.60;;;7.60;97.30;;;;;;5038472;28;20599;-81
2021/11/09 06:20:37;;;;;;;13.13;4.13;;;7.50;97.30;;;;;;5040207;28;20176;-80
2021/11/09 06:23:03;;;;;;;9.77;3.70;;;7.60;97.30;;;;;;5038556;28;20173;-81
2021/11/09 06:25:29;;;;;;;10.13;4.50;;;7.60;97.30;;;;;;5037819;28;20245;-81
2021/11/09 06:27:55;;;;;;;10.90;4.40;;;7.50;97.30;;;;;;5038125;28;21046;-81
2021/11/09 06:30:22;;;;;;;13.70;4.40;;;7.50;97.30;;;;;;5038077;28;20169;-81
2021/11/09 06:32:48;;;;;;;10.90;4.93;;;7.60;97.30;;;;;;5037661;28;20477;-80
2021/11/09 06:35:14;;;;;;;16.90;6.00;;;7.60;97.30;;;;;;5037133;28;20428;-81
2021/11/09 06:37:40;;;;;;;15.33;4.40;;;7.60;97.30;;;;;;5036709;28;20415;-81
2021/11/09 06:40:08;;;;;;;11.73;5.47;;;7.60;97.30;;;;;;5037808;28;20412;-81
2021/11/09 06:42:33;;;;;;;17.30;5.80;;;7.60;97.30;;;;;;5037568;28;20447;-80
2021/11/09 06:44:59;;;;;;;14.83;6.40;;;7.60;97.30;;;;;;5037318;28;20812;-81
2021/11/09 06:47:24;;;;;;;19.03;5.57;;;7.60;97.30;;;;;;5037652;28;20177;-81
2021/11/09 06:49:50;;;;;;;14.10;5.57;;;7.60;97.30;;;;;;5037446;28;20194;-81
2021/11/09 06:52:17;;;;;;;13.10;5.37;;;7.60;97.30;;;;;;5037577;28;20223;-81
2021/11/09 06:54:44;;;;;;;15.23;5.03;;;7.60;97.30;;;;;;5037571;28;20518;-81
2021/11/09 06:57:11;;;;;;;23.03;5.33;;;7.60;97.30;;;;;;5036962;28;20450;-81
2021/11/09 06:59:36;;;;;;;16.70;6.07;;;7.70;97.30;;;;;;5037091;28;20450;-81
2021/11/09 07:02:03;;;;;;;13.90;5.47;;;7.70;97.30;;;;;;5036922;28;20415;-81
2021/11/09 07:04:29;;;;;;;15.80;6.00;;;7.70;97.30;;;;;;5038309;28;20203;-78
2021/11/09 07:06:55;;;;;;;18.47;6.03;;;7.70;97.30;;;;;;5037469;28;20411;-81
2021/11/09 07:09:22;;;;;;;10.03;5.03;;;7.70;97.30;;;;;;5037381;28;20443;-82
2021/11/09 07:11:48;;;;;;;11.50;5.37;;;7.80;97.30;;;;;;5037203;28;20455;-80
2021/11/09 07:14:14;;;;;;;22.87;7.10;;;7.80;97.30;;;;;;5036114;28;20932;-80
2021/11/09 07:16:42;;;;;;;18.23;7.13;;;7.80;97.30;;;;;;5036531;28;20465;-81
2021/11/09 07:19:09;;;;;;;22.07;6.10;;;7.80;97.30;;;;;;5036691;28;20411;-80
2021/11/09 07:21:35;;;;;;;15.03;6.20;;;7.80;97.30;;;;;;5037453;28;20419;-80
2021/11/09 07:24:00;;;;;;;19.00;5.63;;;7.90;97.30;;;;;;5036771;28;20449;-81
2021/11/09 07:26:27;;;;;;;14.70;6.40;;;7.90;97.30;;;;;;5037213;28;20207;-81
2021/11/09 07:28:53;;;;;;;12.70;5.43;;;7.90;97.30;;;;;;5037264;28;20211;-81
2021/11/09 07:31:19;;;;;;;16.77;5.73;;;8.00;97.30;;;;;;5037312;28;20889;-81
2021/11/09 07:33:45;;;;;;;15.47;5.80;;;8.00;97.30;;;;;;5037647;28;20487;-81
2021/11/09 07:36:12;;;;;;;10.90;5.43;;;8.00;97.30;;;;;;5036143;28;20443;-81
2021/11/09 07:38:38;;;;;;;18.97;6.00;;;8.10;97.30;;;;;;5036801;28;20921;-80
2021/11/09 07:41:03;;;;;;;16.20;5.07;;;8.10;97.30;;;;;;5036885;28;20438;-80
2021/11/09 07:43:29;;;;;;;12.30;5.27;;;8.10;97.30;;;;;;5036944;28;20430;-80
2021/11/09 07:45:55;;;;;;;17.10;7.03;;;8.20;97.30;;;;;;5036534;28;20196;-81
2021/11/09 07:48:21;;;;;;;20.00;6.90;;;8.20;97.30;;;;;;5036198;28;20192;-80
2021/11/09 07:50:47;;;;;;;24.57;6.13;;;8.20;97.30;;;;;;5036286;28;20180;-81
2021/11/09 07:53:15;;;;;;;17.00;5.53;;;8.30;97.30;;;;;;5036152;28;20417;-81
2021/11/09 07:55:50;;;;;;;18.57;5.87;;;8.30;97.30;;;;;;5035978;28;20197;-80
2021/11/09 07:58:46;;;;;;;19.77;5.30;;;8.40;97.30;;;;;;5037442;28;20929;-81
2021/11/09 08:01:11;;;;;;;16.17;5.33;;;8.50;97.30;;;;;;5036771;28;20415;-81
2021/11/09 08:03:42;;;;;;;14.80;5.67;;;8.50;97.30;;;;;;5036743;28;20419;-81
2021/11/09 08:11:17;;;;;;;18.80;6.03;;;8.70;97.30;;;;;;5037127;28;20454;-81
2021/11/09 08:13:43;;;;;;;15.03;6.10;;;8.80;97.30;;;;;;5038400;28;20411;-81
2021/11/09 08:16:08;;;;;;;13.77;6.30;;;8.80;97.30;;;;;;5039617;28;20200;-81
2021/11/09 08:18:34;;;;;;;14.90;5.83;;;8.90;97.30;;;;;;5040235;28;20173;-80
2021/11/09 08:21:01;;;;;;;15.07;6.00;;;8.90;97.30;;;;;;5039658;28;20176;-81
2021/11/09 08:23:27;;;;;;;14.97;5.80;;;9.00;97.30;;;;;;5040027;28;20673;-80
2021/11/09 08:25:53;;;;;;;18.17;5.70;;;9.00;97.30;;;;;;5039556;28;20488;-81
2021/11/09 08:28:19;;;;;;;13.63;5.90;;;9.10;97.30;;;;;;5038895;28;20828;-80
2021/11/09 08:30:48;;;;;;;17.30;6.07;;;9.10;97.30;;;;;;5040242;28;20411;-80
2021/11/09 08:33:14;;;;;;;23.23;7.03;;;9.20;97.30;;;;;;5039555;28;20471;-81
2021/11/09 08:35:39;;;;;;;17.07;5.50;;;9.30;97.30;;;;;;5040232;28;20431;-80
2021/11/09 08:38:06;;;;;;;23.10;6.03;;;9.40;97.30;;;;;;5039018;28;20175;-80
2021/11/09 08:40:33;;;;;;;15.57;5.77;;;9.50;97.30;;;;;;5038653;28;20503;-80
2021/11/09 08:43:00;;;;;;;22.43;5.80;;;9.60;97.30;;;;;;5039445;28;20416;-81
2021/11/09 08:45:39;;;;;;;14.37;6.10;;;9.60;97.30;;;;;;5038541;28;20431;-81
2021/11/09 08:48:13;;;;;;;18.37;6.70;;;9.70;97.30;;;;;;5039658;28;20418;-81
2021/11/09 08:50:39;;;;;;;18.07;5.90;;;9.80;97.30;;;;;;5039464;28;20476;-81
2021/11/09 08:53:18;;;;;;;14.73;5.67;;;9.90;97.30;;;;;;5039443;28;20411;-80
2021/11/09 08:58:24;;;;;;;20.37;5.87;;;10.10;97.30;;;;;;5040296;28;20398;-81
2021/11/09 09:01:14;;;;;;;11.00;6.27;;;10.20;97.30;;;;;;5040468;28;20391;-80
2021/11/09 09:06:27;;;;;;;17.83;5.90;;;10.40;97.30;;;;;;5041548;28;20675;-81
2021/11/09 09:08:52;;;;;;;17.50;5.70;;;10.50;97.30;;;;;;5039521;28;20411;-81
2021/11/09 09:11:19;;;;;;;12.60;5.63;;;10.50;97.30;;;;;;5039117;28;20454;-81
2021/11/09 09:13:45;;;;;;;15.60;5.70;;;10.50;97.30;;;;;;5038912;28;20173;-81
2021/11/09 09:16:11;;;;;;;11.47;5.87;;;10.60;97.30;;;;;;5038126;28;20432;-81
2021/11/09 09:18:36;;;;;;;9.40;5.47;;;10.70;97.30;;;;;;5038704;28;20434;-80
2021/11/09 09:21:10;;;;;;;22.40;6.03;;;10.90;97.30;;;;;;5039404;28;20263;-80
2021/11/09 09:23:41;;;;;;;19.97;6.20;;;10.90;97.30;;;;;;5038007;28;20168;-81
2021/11/09 09:53:21;;;;;;;16.70;6.20;;;11.60;97.30;;;;;;5039116;28;20391;-81
2021/11/09 09:55:51;;;;;;;24.10;6.40;;;11.60;97.30;;;;;;5037500;28;20438;-81
2021/11/09 09:58:17;;;;;;;14.17;6.33;;;11.70;97.30;;;;;;5037753;28;20399;-81
2021/11/09 10:00:43;;;;;;;12.63;6.03;;;11.70;97.30;;;;;;5037174;28;20426;-81
2021/11/09 10:03:09;;;;;;;22.07;7.30;;;11.70;97.30;;;;;;5037448;28;20600;-81
2021/11/09 10:05:39;;;;;;;15.23;6.77;;;11.70;97.30;;;;;;5037359;28;20462;-81
2021/11/09 10:08:14;;;;;;;17.27;7.23;;;11.60;97.30;;;;;;5037697;28;20398;-82
2021/11/09 10:10:40;;;;;;;21.13;7.93;;;11.60;97.30;;;;;;5037487;28;20399;-81
2021/11/09 10:13:13;;;;;;;15.17;5.93;;;11.60;97.30;;;;;;5037386;28;20427;-81
2021/11/09 10:15:50;;;;;;;16.10;5.80;;;11.70;97.30;;;;;;5038379;28;20578;-81
2021/11/09 10:18:19;;;;;;;16.90;6.63;;;11.80;97.30;;;;;;5038963;28;20400;-81
2021/11/09 10:20:46;;;;;;;14.60;6.13;;;11.90;97.30;;;;;;5037758;28;20427;-81
2021/11/09 10:23:22;;;;;;;16.20;5.80;;;12.00;97.30;;;;;;5037955;28;20479;-81
2021/11/09 10:25:50;;;;;;;22.57;5.87;;;12.10;97.30;;;;;;5037427;28;20807;-81
2021/11/09 10:28:23;;;;;;;26.43;7.33;;;12.20;97.30;;;;;;5037117;28;20495;-81
2021/11/09 10:30:55;;;;;;;13.30;5.20;;;12.20;97.30;;;;;;5037724;28;20407;-81
2021/11/09 10:33:26;;;;;;;11.93;5.30;;;12.40;97.30;;;;;;5036880;28;20499;-81
2021/11/09 10:35:53;;;;;;;16.23;5.43;;;12.50;97.30;;;;;;5036442;28;20762;-80
2021/11/09 10:38:29;;;;;;;15.53;5.40;;;12.60;97.30;;;;;;5037009;28;20415;-81
2021/11/09 10:40:55;;;;;;;15.67;6.27;;;12.60;97.30;;;;;;5036888;28;20411;-81
2021/11/09 10:43:23;;;;;;;21.20;7.60;;;12.60;97.30;;;;;;5036511;28;20844;-82
2021/11/09 10:45:49;;;;;;;23.07;6.90;;;12.70;97.30;;;;;;5036390;28;20691;-82
2021/11/09 10:48:18;;;;;;;18.37;7.60;;;12.70;97.30;;;;;;5037556;28;20505;-81
2021/11/09 10:50:50;;;;;;;18.97;6.10;;;12.70;97.30;;;;;;5039036;28;20185;-81
2021/11/09 10:55:57;;;;;;;12.20;5.80;;;12.60;97.30;;;;;;5037918;28;20455;-81
2021/11/09 10:58:40;;;;;;;20.47;7.43;;;12.60;97.30;;;;;;5037689;28;20419;-81
2021/11/09 11:06:22;;;;;;;19.10;6.33;;;12.60;97.30;;;;;;5035896;28;20780;-82
2021/11/09 11:08:49;;;;;;;19.50;7.10;;;12.80;97.30;;;;;;5034942;28;20403;-81
2021/11/09 11:11:23;;;;;;;27.13;6.50;;;12.80;97.30;;;;;;5035585;28;20451;-81
2021/11/09 11:13:51;;;;;;;13.93;6.63;;;12.90;97.30;;;;;;5035311;28;20779;-81
2021/11/09 11:16:18;;;;;;;20.40;7.43;;;13.10;97.30;;;;;;5035146;28;20496;-82
2021/11/09 11:18:53;;;;;;;11.13;6.00;;;13.20;97.30;;;;;;5034622;28;20422;-82
2021/11/09 11:21:21;;;;;;;17.07;6.20;;;13.40;97.30;;;;;;5034849;28;20971;-82
2021/11/09 11:23:47;;;;;;;15.90;5.87;;;13.50;97.30;;;;;;5019449;28;20491;-81
2021/11/09 11:26:14;;;;;;;16.80;6.70;;;13.60;96.80;;;;;;5036531;28;20960;-81
2021/11/09 11:28:42;;;;;;;12.83;6.10;;;13.40;96.90;;;;;;5035699;28;20407;-81
2021/11/09 11:31:09;;;;;;;12.80;6.73;;;13.20;97.30;;;;;;5034908;28;20490;-81
2021/11/09 11:33:37;;;;;;;12.43;5.50;;;13.30;97.30;;;;;;5035821;28;20469;-81
2021/11/09 11:36:03;;;;;;;10.63;5.53;;;13.30;97.00;;;;;;5035732;28;20980;-81
2021/11/09 11:38:29;;;;;;;14.87;6.33;;;13.00;97.30;;;;;;5036057;28;20418;-81
2021/11/09 11:40:57;;;;;;;15.93;6.30;;;13.10;97.30;;;;;;5034138;28;20453;-82
2021/11/09 11:43:42;;;;;;;16.43;5.77;;;13.40;97.30;;;;;;5035243;28;20414;-81
2021/11/09 11:46:12;;;;;;;15.37;5.47;;;13.70;97.30;;;;;;5036032;28;20458;-82
2021/11/09 11:48:57;;;;;;;11.93;4.70;;;14.00;96.40;;;;;;5040418;28;20533;-81
2021/11/09 11:51:28;;;;;;;8.70;4.83;;;14.20;96.10;;;;;;5039113;28;21034;-81
2021/11/09 11:53:54;;;;;;;12.20;4.93;;;14.30;94.80;;;;;;5039937;28;20900;-81
2021/11/09 11:56:21;;;;;;;10.50;4.70;;;14.60;95.50;;;;;;5038979;28;20442;-81
2021/11/09 11:58:47;;;;;;;12.43;5.20;;;14.80;95.10;;;;;;5039686;28;20920;-81
2021/11/09 12:01:34;;;;;;;13.03;4.40;;;14.90;93.70;;;;;;5039271;28;20411;-81
2021/11/09 12:03:59;;;;;;;14.70;5.40;;;15.00;93.50;;;;;;5039098;28;20195;-81
2021/11/09 12:06:27;;;;;;;9.03;4.07;;;15.10;93.00;;;;;;5039722;28;20443;-81
2021/11/09 12:08:54;;;;;;;10.93;5.37;;;15.20;92.70;;;;;;5038981;28;20666;-81
2021/11/09 12:11:23;;;;;;;10.47;4.63;;;15.20;92.00;;;;;;5039508;28;20609;-82
2021/11/09 12:14:05;;;;;;;6.73;3.80;;;15.20;91.80;;;;;;5039575;28;20426;-81
2021/11/09 12:16:50;;;;;;;11.77;4.53;;;15.20;91.30;;;;;;5038958;28;20438;-81
2021/11/09 12:19:34;;;;;;;18.83;5.00;;;15.30;91.10;;;;;;5039291;28;20463;-82
2021/11/09 12:22:12;;;;;;;9.17;4.30;;;15.40;91.40;;;;;;5038456;28;20446;-82
2021/11/09 12:24:52;;;;;;;9.20;5.03;;;15.60;91.20;;;;;;5037306;28;20538;-82
2021/11/09 12:27:20;;;;;;;14.80;5.00;;;15.80;91.10;;;;;;5037630;28;20493;-82
2021/11/09 12:29:52;;;;;;;11.10;4.60;;;16.00;90.00;;;;;;5037042;28;20415;-82
2021/11/09 12:32:20;;;;;;;10.60;4.73;;;16.10;89.50;;;;;;5036834;28;20910;-82
2021/11/09 12:35:03;;;;;;;10.97;5.03;;;16.10;89.80;;;;;;5037533;28;20435;-86
2021/11/09 12:37:34;;;;;;;14.77;3.90;;;16.10;89.00;;;;;;5037376;28;20414;-81
2021/11/09 12:40:30;;;;;;;7.93;3.77;;;16.10;89.00;;;;;;5037518;28;20415;-83
2021/11/09 12:43:10;;;;;;;10.00;4.57;;;16.30;88.90;;;;;;5036552;28;20411;-83
2021/11/09 12:45:39;;;;;;;11.53;5.93;;;16.20;88.50;;;;;;5036365;28;20462;-82
2021/11/09 12:48:08;;;;;;;14.90;5.70;;;16.10;88.20;;;;;;5037335;28;20747;-82
2021/11/09 12:50:35;;;;;;;8.13;4.60;;;15.90;88.50;;;;;;5037289;28;20412;-82
2021/11/09 12:53:15;;;;;;;7.60;4.57;;;16.00;88.70;;;;;;5035518;28;20466;-83
2021/11/09 12:55:42;;;;;;;12.90;3.93;;;16.00;88.80;;;;;;5035996;28;20431;-83
2021/11/09 12:58:22;;;;;;;6.03;3.50;;;16.10;87.60;;;;;;5036017;28;20532;-83
2021/11/09 13:04:15;;;;;;;10.03;5.10;;;16.30;86.80;;;;;;5037185;28;20386;-82
2021/11/09 13:07:08;;;;;;;7.03;3.07;;;16.60;86.60;;;;;;5035193;28;20410;-83
2021/11/09 13:09:40;;;;;;;6.27;3.27;;;16.80;86.00;;;;;;5035403;28;20930;-82
2021/11/09 13:12:15;;;;;;;5.97;2.70;;;16.40;84.30;;;;;;5035631;28;20509;-82
2021/11/09 13:14:46;;;;;;;7.50;3.17;;;16.60;85.30;;;;;;5035206;28;20435;-82
2021/11/09 13:17:15;;;;;;;5.50;2.73;;;16.80;84.40;;;;;;5034922;28;20784;-83
2021/11/09 13:19:42;;;;;;;4.67;2.80;;;17.00;84.30;;;;;;5034988;28;20536;-84
2021/11/09 13:22:14;;;;;;;5.83;2.80;;;17.10;83.80;;;;;;5034891;28;20419;-83
2021/11/09 13:24:55;;;;;;;6.80;3.33;;;17.10;83.80;;;;;;5035026;28;20436;-83
2021/11/09 13:27:40;;;;;;;6.30;3.13;;;16.90;83.80;;;;;;5035117;28;21012;-83
2021/11/09 13:30:16;;;;;;;6.90;3.40;;;16.70;84.50;;;;;;5035090;28;20841;-83
2021/11/09 13:32:44;;;;;;;4.97;2.93;;;16.70;84.40;;;;;;5034874;28;20482;-83
2021/11/09 13:35:32;;;;;;;6.63;2.50;;;17.00;84.80;;;;;;5034933;28;20427;-82
2021/11/09 13:38:18;;;;;;;8.07;3.60;;;17.00;83.50;;;;;;5034261;28;20468;-83
2021/11/09 13:40:58;;;;;;;5.93;3.23;;;17.10;84.20;;;;;;5034758;28;20414;-83
2021/11/09 13:43:35;;;;;;;5.73;3.20;;;17.30;84.90;;;;;;5034490;28;20457;-83
2021/11/09 13:46:06;;;;;;;6.23;3.40;;;17.40;84.70;;;;;;5034836;28;20441;-83
2021/11/09 13:48:34;;;;;;;7.67;3.87;;;17.20;84.40;;;;;;5034692;28;20481;-83
2021/11/09 13:51:05;;;;;;;11.70;3.47;;;17.20;84.80;;;;;;5034548;28;20443;-83
2021/11/09 13:53:43;;;;;;;5.10;3.40;;;16.90;85.10;;;;;;5033982;28;20434;-83
2021/11/09 13:56:14;;;;;;;6.13;3.10;;;16.90;85.30;;;;;;5034062;28;20450;-83
2021/11/09 13:58:51;;;;;;;8.80;3.53;;;16.90;85.30;;;;;;5033802;28;20461;-83
2021/11/09 14:01:29;;;;;;;9.50;3.70;;;16.70;84.90;;;;;;5034328;28;20433;-83
2021/11/09 14:12:46;;;;;;;4.23;2.97;;;16.70;84.50;;;;;;5035208;28;20461;-83
2021/11/09 14:17:39;;;;;;;6.77;3.37;;;16.40;84.30;;;;;;5034976;28;20518;-83
2021/11/09 14:20:09;;;;;;;5.63;2.97;;;16.00;84.80;;;;;;5033816;28;20940;-83
2021/11/09 14:22:36;;;;;;;5.20;3.53;;;15.80;85.70;;;;;;5034555;28;20419;-83
2021/11/09 14:25:04;;;;;;;6.40;3.43;;;15.70;86.40;;;;;;5033409;28;20756;-82
2021/11/09 14:27:36;;;;;;;5.03;2.97;;;15.70;86.60;;;;;;5034568;28;20469;-83
2021/11/09 14:30:04;;;;;;;10.70;3.93;;;15.70;86.70;;;;;;5033526;28;20502;-83
2021/11/09 14:32:36;;;;;;;8.83;3.80;;;15.80;86.90;;;;;;5033016;28;20501;-82
2021/11/09 14:35:24;;;;;;;4.80;2.93;;;15.60;86.90;;;;;;5033200;28;20455;-83
2021/11/09 14:40:57;;;;;;;10.73;4.03;;;15.20;88.20;;;;;;5025348;28;20411;-83
2021/11/09 14:43:40;;;;;;;8.20;3.40;;;14.90;88.30;;;;;;5033096;28;20840;-82
2021/11/09 14:46:12;;;;;;;7.37;3.30;;;14.30;89.40;;;;;;5033109;28;20431;-83
2021/11/09 14:54:16;;;;;;;7.13;3.90;;;13.60;91.50;;;;;;5035120;28;20425;-83
2021/11/09 14:56:35;;;;;;;8.10;3.60;;;13.40;92.00;;;;;;5031627;28;20439;-83
2021/11/09 14:59:07;;;;;;;6.60;3.60;;;13.50;92.10;;;;;;5033115;28;20400;-83
2021/11/09 15:07:16;;;;;;;7.83;3.20;;;14.60;90.30;;;;;;5034362;28;20475;-83
2021/11/09 15:29:12;;;;;;;6.70;2.93;;;13.00;93.20;;;;;;5034251;28;20903;-83
2021/11/09 15:31:47;;;;;;;7.87;2.87;;;12.70;94.00;;;;;;5032435;28;20505;-83
2021/11/09 15:34:23;;;;;;;7.30;3.00;;;12.40;94.70;;;;;;5032204;28;20423;-83
2021/11/09 15:37:11;;;;;;;14.10;3.90;;;12.20;95.30;;;;;;5032791;28;20411;-83
2021/11/09 15:39:37;;;;;;;12.27;4.97;;;12.00;95.80;;;;;;5032550;28;20908;-83
2021/11/09 15:42:04;;;;;;;5.80;3.03;;;11.80;96.40;;;;;;5032449;28;20423;-83
2021/11/09 15:44:30;;;;;;;6.77;3.23;;;11.60;96.70;;;;;;5032348;28;20518;-83
2021/11/09 15:46:56;;;;;;;8.23;3.20;;;11.30;97.30;;;;;;5032427;28;20499;-83
2021/11/09 15:49:23;;;;;;;6.20;3.00;;;11.10;97.30;;;;;;5032355;28;20176;-83